createdAt,value
2022-08-20T00:02:14.565Z,13.90
2022-08-20T00:04:42.303Z,14.00
2022-08-20T00:07:10.136Z,13.90
2022-08-20T00:12:06.667Z,13.90
2022-08-20T00:14:35.355Z,13.90
2022-08-20T00:17:05.002Z,13.80
2022-08-20T00:19:32.905Z,13.80
2022-08-20T00:22:00.567Z,13.80
2022-08-20T00:24:28.207Z,13.80
2022-08-20T00:26:55.904Z,13.80
2022-08-20T00:29:23.651Z,13.70
2022-08-20T00:31:51.527Z,13.80
2022-08-20T00:34:19.610Z,13.80
2022-08-20T00:36:47.118Z,13.80
2022-08-20T00:39:14.802Z,13.80
2022-08-20T00:41:43.055Z,13.70
2022-08-20T00:44:21.988Z,13.60
2022-08-20T00:46:51.316Z,13.70
2022-08-20T00:49:24.910Z,13.70
2022-08-20T00:52:17.779Z,13.60
2022-08-20T00:54:48.852Z,13.60
2022-08-20T00:57:29.873Z,13.60
2022-08-20T01:00:22.448Z,13.60
2022-08-20T01:02:50.677Z,13.50
2022-08-20T01:05:18.687Z,13.50
2022-08-20T01:07:46.561Z,13.50
2022-08-20T01:10:20.160Z,13.40
2022-08-20T01:12:49.625Z,13.40
2022-08-20T01:15:32.005Z,13.40
2022-08-20T01:18:02.397Z,13.30
2022-08-20T01:20:38.151Z,13.30
2022-08-20T01:23:34.830Z,13.30
2022-08-20T01:26:06.063Z,13.20
2022-08-20T01:28:50.876Z,13.20
2022-08-20T01:31:34.210Z,13.10
2022-08-20T01:34:04.272Z,13.10
2022-08-20T01:36:54.022Z,13.10
2022-08-20T01:39:30.065Z,13.10
2022-08-20T01:42:14.786Z,13.00
2022-08-20T01:44:44.729Z,13.00
2022-08-20T01:47:20.084Z,13.10
2022-08-20T01:49:52.548Z,13.00
2022-08-20T01:52:46.781Z,13.10
2022-08-20T01:55:14.699Z,13.10
2022-08-20T01:57:42.644Z,13.00
2022-08-20T02:00:19.749Z,13.10
2022-08-20T02:02:49.618Z,13.00
2022-08-20T02:05:19.857Z,13.10
2022-08-20T02:07:48.084Z,13.10
2022-08-20T02:10:17.948Z,13.10
2022-08-20T02:12:45.651Z,13.10
2022-08-20T02:15:13.971Z,13.10
2022-08-20T02:17:42.561Z,13.10
2022-08-20T02:20:16.082Z,13.10
2022-08-20T02:22:56.494Z,13.10
2022-08-20T02:25:28.050Z,13.10
2022-08-20T02:28:03.246Z,13.10
2022-08-20T02:30:37.447Z,13.10
2022-08-20T02:33:07.416Z,13.10
2022-08-20T02:35:36.725Z,13.00
2022-08-20T02:38:04.607Z,13.00
2022-08-20T02:40:33.328Z,12.90
2022-08-20T02:43:02.471Z,12.90
2022-08-20T02:45:37.229Z,12.80
2022-08-20T02:48:05.553Z,12.80
2022-08-20T02:50:33.490Z,12.80
2022-08-20T02:53:01.339Z,12.80
2022-08-20T02:55:28.894Z,12.70
2022-08-20T02:57:58.743Z,12.70
2022-08-20T03:00:37.697Z,12.60
2022-08-20T03:03:11.163Z,12.60
2022-08-20T03:05:42.022Z,12.60
2022-08-20T03:08:12.511Z,12.50
2022-08-20T03:10:42.978Z,12.40
2022-08-20T03:13:12.668Z,12.40
2022-08-20T03:15:43.125Z,12.40
2022-08-20T03:18:11.672Z,12.40
2022-08-20T03:20:39.880Z,12.30
2022-08-20T03:23:07.827Z,12.30
2022-08-20T03:25:35.480Z,12.30
2022-08-20T03:30:31.369Z,12.20
2022-08-20T03:33:00.024Z,12.20
2022-08-20T03:35:29.499Z,12.30
2022-08-20T03:37:57.549Z,12.30
2022-08-20T03:40:31.305Z,12.50
2022-08-20T03:42:59.808Z,14.20
2022-08-20T03:45:28.388Z,12.60
2022-08-20T03:47:57.013Z,12.70
2022-08-20T03:50:27.044Z,12.80
2022-08-20T03:52:55.760Z,12.90
2022-08-20T03:55:24.838Z,13.00
2022-08-20T03:57:56.714Z,13.00
2022-08-20T04:00:47.776Z,13.10
2022-08-20T04:05:45.482Z,13.30
2022-08-20T04:08:17.534Z,13.30
2022-08-20T04:10:47.435Z,13.40
2022-08-20T04:13:16.990Z,13.40
2022-08-20T04:15:46.479Z,13.40
2022-08-20T04:18:24.222Z,13.40
2022-08-20T04:20:53.473Z,13.40
2022-08-20T04:23:22.542Z,13.40
2022-08-20T04:25:50.398Z,13.40
2022-08-20T04:28:27.401Z,16.20
2022-08-20T04:30:56.879Z,13.50
2022-08-20T04:33:33.855Z,13.50
2022-08-20T04:36:06.177Z,13.60
2022-08-20T04:38:49.839Z,13.70
2022-08-20T04:41:24.143Z,13.80
2022-08-20T04:43:54.263Z,13.90
2022-08-20T04:46:25.780Z,13.90
2022-08-20T04:48:54.336Z,14.10
2022-08-20T04:51:23.117Z,14.10
2022-08-20T04:53:53.977Z,14.10
2022-08-20T04:56:27.891Z,14.20
2022-08-20T04:59:00.530Z,14.20
2022-08-20T05:01:29.289Z,14.30
2022-08-20T05:03:58.324Z,14.30
2022-08-20T05:06:29.055Z,14.40
2022-08-20T05:08:58.718Z,14.50
2022-08-20T05:11:33.033Z,14.50
2022-08-20T05:14:04.285Z,14.50
2022-08-20T05:16:37.784Z,14.50
2022-08-20T05:19:08.851Z,14.70
2022-08-20T05:21:37.668Z,14.60
2022-08-20T05:24:06.166Z,14.70
2022-08-20T05:26:34.135Z,14.70
2022-08-20T05:29:04.350Z,14.80
2022-08-20T05:31:33.737Z,14.80
2022-08-20T05:34:10.853Z,14.90
2022-08-20T05:36:44.105Z,14.90
2022-08-20T05:39:13.444Z,14.90
2022-08-20T05:41:41.780Z,14.90
2022-08-20T05:44:13.337Z,14.90
2022-08-20T05:46:43.548Z,14.90
2022-08-20T05:49:14.247Z,14.90
2022-08-20T05:51:42.049Z,14.90
2022-08-20T05:54:09.958Z,15.00
2022-08-20T05:56:37.814Z,15.00
2022-08-20T05:59:08.836Z,15.00
2022-08-20T06:01:39.236Z,15.00
2022-08-20T06:04:29.778Z,15.00
2022-08-20T06:07:03.907Z,15.00
2022-08-20T06:09:32.952Z,15.00
2022-08-20T06:12:02.921Z,15.00
2022-08-20T06:14:31.949Z,15.00
2022-08-20T06:17:05.415Z,15.10
2022-08-20T06:19:34.089Z,15.10
2022-08-20T06:22:08.566Z,15.10
2022-08-20T06:24:46.561Z,15.10
2022-08-20T06:27:16.278Z,15.10
2022-08-20T06:29:44.405Z,15.10
2022-08-20T06:32:12.357Z,15.10
2022-08-20T06:34:50.695Z,15.20
2022-08-20T06:37:25.937Z,15.20
2022-08-20T06:40:08.096Z,15.20
2022-08-20T06:42:36.635Z,15.30
2022-08-20T06:45:07.467Z,15.30
2022-08-20T06:47:35.161Z,15.30
2022-08-20T06:50:02.819Z,15.40
2022-08-20T06:52:52.219Z,15.40
2022-08-20T06:55:18.938Z,15.60
2022-08-20T06:57:48.417Z,15.70
2022-08-20T07:00:20.097Z,15.90
2022-08-20T07:02:48.180Z,16.10
2022-08-20T07:05:16.880Z,16.40
2022-08-20T07:07:47.044Z,16.40
2022-08-20T07:10:16.443Z,16.50
2022-08-20T07:12:44.723Z,16.60
2022-08-20T07:15:14.211Z,16.60
2022-08-20T07:17:42.420Z,16.60
2022-08-20T07:20:15.287Z,16.80
2022-08-20T07:22:43.559Z,16.90
2022-08-20T07:25:12.866Z,17.30
2022-08-20T07:27:42.002Z,17.20
2022-08-20T07:30:55.873Z,17.40
2022-08-20T07:33:28.319Z,17.40
2022-08-20T07:36:02.158Z,17.60
2022-08-20T07:38:32.060Z,17.60
2022-08-20T07:41:02.676Z,17.60
2022-08-20T07:43:31.014Z,17.60
2022-08-20T07:46:07.538Z,17.80
2022-08-20T07:48:40.053Z,17.80
2022-08-20T07:51:10.927Z,17.80
2022-08-20T07:53:40.493Z,17.80
2022-08-20T07:56:11.816Z,17.00
2022-08-20T07:58:50.434Z,17.90
2022-08-20T08:01:20.125Z,18.00
2022-08-20T08:03:50.118Z,18.00
2022-08-20T08:06:29.699Z,18.10
2022-08-20T08:09:04.356Z,18.20
2022-08-20T08:11:34.924Z,18.20
2022-08-20T08:14:06.328Z,18.20
2022-08-20T08:16:35.225Z,18.30
2022-08-20T08:19:06.811Z,18.20
2022-08-20T08:21:35.137Z,18.30
2022-08-20T08:24:03.252Z,18.30
2022-08-20T08:26:31.119Z,18.40
2022-08-20T08:28:58.836Z,18.50
2022-08-20T08:31:27.412Z,18.50
2022-08-20T08:33:55.685Z,18.60
2022-08-20T08:36:26.369Z,18.80
2022-08-20T08:38:55.173Z,18.80
2022-08-20T08:41:32.511Z,19.00
2022-08-20T08:44:14.410Z,19.10
2022-08-20T08:46:44.836Z,19.20
2022-08-20T08:49:17.270Z,19.10
2022-08-20T08:52:02.424Z,19.10
2022-08-20T08:54:31.475Z,19.30
2022-08-20T08:57:00.411Z,19.50
2022-08-20T08:59:46.140Z,19.50
2022-08-20T09:02:21.790Z,19.50
2022-08-20T09:04:51.574Z,19.50
2022-08-20T09:07:20.184Z,19.50
2022-08-20T09:09:48.129Z,19.50
2022-08-20T09:12:19.774Z,19.60
2022-08-20T09:14:49.154Z,19.60
2022-08-20T09:17:19.203Z,19.70
2022-08-20T09:19:47.401Z,19.70
2022-08-20T09:22:18.677Z,19.70
2022-08-20T09:24:46.414Z,20.00
2022-08-20T09:27:14.346Z,20.00
2022-08-20T09:29:41.943Z,20.30
2022-08-20T09:32:20.815Z,20.60
2022-08-20T09:34:52.543Z,20.50
2022-08-20T09:37:20.539Z,20.60
2022-08-20T09:39:48.777Z,20.50
2022-08-20T09:42:31.572Z,18.40
2022-08-20T09:45:00.509Z,20.50
2022-08-20T09:47:28.325Z,20.40
2022-08-20T09:49:55.930Z,20.50
2022-08-20T09:52:25.634Z,20.30
2022-08-20T09:54:58.785Z,20.10
2022-08-20T09:57:27.508Z,20.00
2022-08-20T09:59:59.490Z,19.90
2022-08-20T10:02:27.681Z,20.00
2022-08-20T10:04:55.531Z,20.20
2022-08-20T10:07:25.905Z,20.40
2022-08-20T10:09:53.576Z,20.70
2022-08-20T10:12:21.370Z,20.90
2022-08-20T10:14:48.992Z,20.80
2022-08-20T10:17:16.749Z,20.70
2022-08-20T10:19:44.582Z,20.70
2022-08-20T10:22:12.475Z,20.90
2022-08-20T10:24:40.220Z,21.60
2022-08-20T10:27:07.773Z,21.10
2022-08-20T10:29:35.541Z,21.10
2022-08-20T10:32:12.505Z,21.00
2022-08-20T10:34:42.972Z,21.10
2022-08-20T10:37:15.741Z,21.10
2022-08-20T10:39:43.926Z,21.10
2022-08-20T10:42:12.083Z,21.10
2022-08-20T10:44:39.950Z,21.20
2022-08-20T10:47:33.964Z,21.40
2022-08-20T10:50:04.685Z,21.60
2022-08-20T10:52:32.673Z,21.80
2022-08-20T10:55:00.530Z,21.90
2022-08-20T10:57:29.124Z,21.90
2022-08-20T10:59:59.307Z,21.90
2022-08-20T11:02:28.459Z,21.90
2022-08-20T11:04:56.435Z,21.90
2022-08-20T11:07:55.594Z,22.00
2022-08-20T11:10:21.119Z,22.00
2022-08-20T11:12:48.869Z,21.80
2022-08-20T11:15:16.482Z,21.80
2022-08-20T11:17:45.098Z,22.00
2022-08-20T11:20:15.426Z,22.10
2022-08-20T11:22:43.160Z,22.00
2022-08-20T11:25:11.031Z,21.80
2022-08-20T11:27:45.123Z,21.80
2022-08-20T11:30:17.244Z,21.90
2022-08-20T11:32:45.028Z,22.20
2022-08-20T11:35:41.243Z,22.40
2022-08-20T11:38:02.557Z,22.40
2022-08-20T11:40:31.590Z,22.50
2022-08-20T11:43:14.191Z,22.40
2022-08-20T11:45:47.873Z,22.30
2022-08-20T11:48:15.937Z,22.10
2022-08-20T11:50:44.015Z,22.20
2022-08-20T11:53:11.670Z,22.40
2022-08-20T11:55:39.487Z,22.60
2022-08-20T11:58:07.731Z,22.80
2022-08-20T12:00:37.174Z,22.80
2022-08-20T12:03:09.395Z,22.70
2022-08-20T12:05:39.187Z,22.70
2022-08-20T12:08:08.485Z,22.50
2022-08-20T12:10:37.957Z,22.40
2022-08-20T12:13:07.347Z,22.60
2022-08-20T12:15:37.019Z,22.90
2022-08-20T12:18:08.613Z,23.00
2022-08-20T12:20:37.802Z,22.50
2022-08-20T12:23:05.688Z,22.60
2022-08-20T12:25:33.985Z,22.50
2022-08-20T12:28:01.929Z,22.60
2022-08-20T12:30:29.595Z,22.80
2022-08-20T12:32:57.647Z,22.80
2022-08-20T12:35:26.399Z,22.80
2022-08-20T12:37:54.088Z,22.80
2022-08-20T12:40:31.886Z,23.00
2022-08-20T12:43:02.458Z,23.40
2022-08-20T12:45:30.500Z,23.70
2022-08-20T12:48:07.295Z,24.30
2022-08-20T12:50:36.451Z,24.30
2022-08-20T12:53:04.705Z,24.50
2022-08-20T12:55:33.020Z,24.40
2022-08-20T12:58:02.858Z,23.60
2022-08-20T13:00:35.753Z,24.50
2022-08-20T13:03:05.754Z,24.50
2022-08-20T13:05:34.965Z,24.50
2022-08-20T13:08:06.857Z,24.50
2022-08-20T13:10:37.390Z,24.60
2022-08-20T13:13:05.284Z,24.60
2022-08-20T13:15:33.365Z,24.70
2022-08-20T13:18:02.905Z,24.80
2022-08-20T13:20:34.541Z,24.90
2022-08-20T13:23:04.865Z,24.90
2022-08-20T13:25:33.243Z,25.00
2022-08-20T13:28:04.597Z,25.10
2022-08-20T13:30:34.807Z,25.40
2022-08-20T13:33:02.794Z,25.50
2022-08-20T13:35:31.474Z,25.60
2022-08-20T13:37:59.197Z,25.80
2022-08-20T13:40:26.903Z,25.90
2022-08-20T13:42:54.513Z,25.90
2022-08-20T13:45:22.267Z,25.90
2022-08-20T13:47:54.719Z,26.10
2022-08-20T13:50:25.544Z,26.60
2022-08-20T13:52:54.223Z,26.70
2022-08-20T13:55:26.298Z,26.80
2022-08-20T13:57:56.761Z,26.80
2022-08-20T14:00:31.891Z,27.00
2022-08-20T14:03:06.078Z,27.00
2022-08-20T14:05:34.632Z,27.20
2022-08-20T14:08:23.548Z,26.30
2022-08-20T14:10:51.920Z,26.10
2022-08-20T14:13:22.223Z,25.60
2022-08-20T14:15:50.225Z,25.60
2022-08-20T14:18:18.399Z,25.80
2022-08-20T14:20:46.279Z,25.80
2022-08-20T14:23:15.171Z,25.80
2022-08-20T14:25:47.137Z,25.80
2022-08-20T14:28:18.594Z,26.00
2022-08-20T14:30:53.045Z,25.90
2022-08-20T14:33:23.205Z,25.30
2022-08-20T14:35:51.674Z,24.40
2022-08-20T14:38:19.658Z,24.30
2022-08-20T14:40:47.594Z,23.80
2022-08-20T14:43:15.425Z,24.00
2022-08-20T14:45:43.163Z,24.50
2022-08-20T14:48:10.939Z,24.90
2022-08-20T14:50:39.185Z,25.50
2022-08-20T14:53:07.410Z,25.90
2022-08-20T14:55:38.111Z,26.30
2022-08-20T14:58:12.777Z,26.60
2022-08-20T15:00:43.158Z,26.50
2022-08-20T15:03:13.621Z,26.40
2022-08-20T15:05:42.390Z,26.10
2022-08-20T15:08:12.587Z,25.60
2022-08-20T15:10:42.384Z,25.10
2022-08-20T15:13:10.979Z,25.10
2022-08-20T15:15:40.703Z,25.60
2022-08-20T15:18:09.154Z,26.10
2022-08-20T15:20:37.846Z,25.30
2022-08-20T15:23:06.377Z,25.40
2022-08-20T15:25:37.855Z,24.80
2022-08-20T15:28:09.397Z,24.40
2022-08-20T15:30:40.404Z,24.00
2022-08-20T15:33:10.469Z,24.20
2022-08-20T15:35:39.276Z,24.70
2022-08-20T15:38:07.624Z,24.90
2022-08-20T15:40:36.007Z,24.70
2022-08-20T15:43:05.481Z,24.30
2022-08-20T15:45:35.097Z,24.00
2022-08-20T15:48:30.608Z,23.70
2022-08-20T15:51:17.502Z,23.70
2022-08-20T15:54:00.706Z,23.70
2022-08-20T15:56:36.458Z,23.50
2022-08-20T15:59:42.359Z,23.40
2022-08-20T16:02:25.969Z,24.20
2022-08-20T16:05:06.334Z,24.00
2022-08-20T16:07:40.683Z,24.00
2022-08-20T16:10:34.287Z,23.50
2022-08-20T16:13:12.212Z,23.30
2022-08-20T16:15:48.882Z,23.10
2022-08-20T16:18:23.308Z,22.90
2022-08-20T16:20:55.037Z,22.80
2022-08-20T16:23:31.807Z,22.70
2022-08-20T16:26:49.519Z,22.70
2022-08-20T16:29:45.890Z,22.60
2022-08-20T16:32:31.269Z,23.10
2022-08-20T16:35:06.514Z,23.40
2022-08-20T16:38:08.446Z,24.10
2022-08-20T16:40:49.735Z,24.60
2022-08-20T16:43:23.810Z,24.20
2022-08-20T16:46:03.198Z,23.40
2022-08-20T16:48:37.968Z,23.20
2022-08-20T16:51:14.239Z,23.20
2022-08-20T16:53:42.918Z,23.10
2022-08-20T16:56:11.073Z,23.20
2022-08-20T16:58:39.651Z,23.30
2022-08-20T17:01:12.027Z,23.90
2022-08-20T17:03:52.968Z,24.30
2022-08-20T17:06:33.738Z,24.30
2022-08-20T17:09:09.491Z,23.60
2022-08-20T17:12:21.387Z,23.50
2022-08-20T17:14:53.866Z,23.40
2022-08-20T17:17:27.705Z,23.30
2022-08-20T17:19:59.250Z,23.10
2022-08-20T17:22:29.863Z,22.70
2022-08-20T17:24:58.624Z,22.30
2022-08-20T17:27:33.019Z,22.10
2022-08-20T17:30:19.760Z,21.90
2022-08-20T17:32:57.763Z,21.70
2022-08-20T17:35:31.924Z,21.60
2022-08-20T17:38:02.511Z,21.60
2022-08-20T17:40:50.074Z,21.60
2022-08-20T17:43:33.380Z,22.80
2022-08-20T17:46:11.405Z,23.10
2022-08-20T17:48:48.594Z,23.10
2022-08-20T17:51:22.783Z,23.20
2022-08-20T17:53:57.513Z,23.20
2022-08-20T17:56:40.602Z,22.80
2022-08-20T17:59:47.706Z,22.00
2022-08-20T18:02:15.014Z,21.50
2022-08-20T18:04:43.452Z,21.30
2022-08-20T18:07:11.071Z,21.30
2022-08-20T18:09:50.153Z,20.90
2022-08-20T18:12:39.304Z,20.90
2022-08-20T18:15:07.106Z,20.60
2022-08-20T18:17:44.560Z,20.60
2022-08-20T18:20:34.263Z,20.50
2022-08-20T18:23:11.138Z,20.50
2022-08-20T18:25:48.539Z,20.60
2022-08-20T18:28:21.804Z,20.60
2022-08-20T18:30:57.471Z,20.50
2022-08-20T18:33:36.417Z,20.50
2022-08-20T18:36:07.208Z,20.50
2022-08-20T18:38:38.561Z,20.50
2022-08-20T18:41:26.378Z,20.50
2022-08-20T18:44:06.806Z,20.40
2022-08-20T18:46:35.640Z,20.40
2022-08-20T18:49:06.723Z,20.20
2022-08-20T18:51:34.455Z,20.10
2022-08-20T18:54:02.336Z,20.10
2022-08-20T18:56:35.243Z,20.00
2022-08-20T18:59:12.010Z,19.70
2022-08-20T19:01:42.161Z,19.50
2022-08-20T19:04:19.124Z,19.40
2022-08-20T19:06:56.859Z,19.40
2022-08-20T19:09:43.934Z,19.20
2022-08-20T19:12:21.011Z,19.20
2022-08-20T19:15:07.451Z,19.10
2022-08-20T19:18:03.286Z,18.90
2022-08-20T19:20:35.829Z,18.90
2022-08-20T19:23:15.550Z,18.80
2022-08-20T19:25:56.041Z,18.60
2022-08-20T19:28:29.158Z,18.50
2022-08-20T19:31:08.512Z,18.40
2022-08-20T19:36:22.196Z,18.30
2022-08-20T19:38:55.671Z,18.30
2022-08-20T19:41:31.173Z,18.10
2022-08-20T19:44:01.305Z,18.00
2022-08-20T19:46:35.107Z,18.00
2022-08-20T19:49:37.339Z,18.00
2022-08-20T19:52:24.974Z,18.00
2022-08-20T19:55:01.332Z,18.00
2022-08-20T19:57:31.488Z,18.00
2022-08-20T19:59:59.124Z,18.00
2022-08-20T20:02:29.818Z,18.00
2022-08-20T20:04:58.256Z,17.90
2022-08-20T20:07:35.750Z,18.00
2022-08-20T20:10:06.450Z,18.00
2022-08-20T20:12:35.274Z,18.00
2022-08-20T20:15:05.028Z,18.10
2022-08-20T20:17:36.235Z,18.00
2022-08-20T20:20:26.077Z,18.00
2022-08-20T20:23:06.341Z,18.00
2022-08-20T20:25:34.709Z,18.20
2022-08-20T20:28:24.291Z,18.00
2022-08-20T20:30:52.181Z,18.10
2022-08-20T20:33:42.085Z,18.10
2022-08-20T20:36:29.854Z,18.10
2022-08-20T20:39:00.561Z,18.00
2022-08-20T20:41:29.810Z,18.80
2022-08-20T20:44:23.141Z,17.90
2022-08-20T20:46:56.711Z,17.90
2022-08-20T20:49:48.525Z,17.90
2022-08-20T20:52:47.219Z,17.80
2022-08-20T20:55:24.562Z,17.60
2022-08-20T20:57:52.685Z,17.60
2022-08-20T21:00:23.478Z,17.50
2022-08-20T21:02:52.087Z,17.40
2022-08-20T21:05:22.639Z,17.40
2022-08-20T21:07:56.807Z,17.30
2022-08-20T21:10:32.296Z,17.20
2022-08-20T21:13:03.951Z,17.20
2022-08-20T21:15:33.163Z,17.20
2022-08-20T21:18:05.882Z,17.10
2022-08-20T21:20:33.759Z,17.10
2022-08-20T21:23:01.340Z,17.10
2022-08-20T21:25:31.930Z,17.00
2022-08-20T21:28:00.147Z,16.90
2022-08-20T21:30:28.631Z,17.00
2022-08-20T21:32:56.471Z,17.00
2022-08-20T21:35:24.212Z,16.90
2022-08-20T21:37:51.943Z,16.90
2022-08-20T21:40:21.796Z,16.90
2022-08-20T21:42:50.046Z,16.90
2022-08-20T21:45:19.644Z,16.80
2022-08-20T21:47:48.795Z,16.80
2022-08-20T21:50:19.127Z,16.80
2022-08-20T21:52:55.276Z,16.70
2022-08-20T21:55:33.041Z,16.80
2022-08-20T21:58:04.520Z,16.80
2022-08-20T22:00:51.695Z,16.70
2022-08-20T22:03:21.422Z,16.60
2022-08-20T22:05:49.887Z,16.60
2022-08-20T22:08:19.129Z,16.60
2022-08-20T22:10:46.942Z,16.50
2022-08-20T22:13:14.818Z,16.50
2022-08-20T22:15:43.098Z,16.40
2022-08-20T22:18:11.253Z,16.40
2022-08-20T22:20:41.050Z,16.40
2022-08-20T22:23:08.958Z,16.30
2022-08-20T22:25:37.125Z,16.30
2022-08-20T22:28:05.051Z,16.30
2022-08-20T22:30:33.207Z,16.30
2022-08-20T22:33:08.801Z,16.20
2022-08-20T22:35:37.610Z,16.20
2022-08-20T22:38:06.324Z,16.20
2022-08-20T22:43:02.423Z,16.10
2022-08-20T22:45:30.145Z,16.10
2022-08-20T22:47:57.991Z,16.00
2022-08-20T22:50:25.806Z,15.90
2022-08-20T22:52:54.309Z,15.90
2022-08-20T22:55:22.300Z,15.90
2022-08-20T22:57:50.145Z,15.80
2022-08-20T23:00:19.383Z,15.80
2022-08-20T23:02:58.190Z,15.70
2022-08-20T23:05:28.783Z,15.70
2022-08-20T23:07:58.663Z,15.70
2022-08-20T23:10:27.965Z,15.70
2022-08-20T23:12:57.248Z,15.60
2022-08-20T23:15:27.915Z,15.50
2022-08-20T23:18:00.792Z,15.60
2022-08-20T23:20:28.617Z,15.60
2022-08-20T23:22:56.825Z,15.50
2022-08-20T23:25:25.410Z,15.50
2022-08-20T23:27:57.695Z,15.40
2022-08-20T23:30:33.665Z,15.40
2022-08-20T23:33:01.979Z,15.30
2022-08-20T23:35:32.157Z,15.30
2022-08-20T23:38:00.916Z,15.30
2022-08-20T23:40:30.045Z,15.30
2022-08-20T23:42:58.946Z,15.20
2022-08-20T23:45:28.167Z,15.20
2022-08-20T23:47:56.342Z,15.20
2022-08-20T23:50:27.809Z,15.30
2022-08-20T23:52:57.188Z,15.20
2022-08-20T23:55:25.993Z,15.20
2022-08-20T23:57:54.163Z,15.20
